Meductic, Canada
Current Conditions -  °F | °C
As of 7:53 PM on Saturday 22 Nov 2014 (Local Time) from KHUL Reporting Station
Overcast Overcast  
Wind Chill: 19°   Ceiling: 3600
Heat Index: 27°   Visibility: 10mi
Dew Point: 15°   Wind: 7mph
Humidity: 61%   Direction: 220°SW
Pressure: 29.83"   Gusts: NA
Location:  46°N, 67.47°W
Report Text: KHUL 222353Z AUTO 22006KT 10SM BKN036 OVC050 M03/M09 A2983 RMK AO2 SLP112 T10281094 11022 21056 56009
Loading
Personal Weather Stations






























Interactive Weather Map New forecast layout! Learn more

10-Day Weather Forecast

Advertisements
Track Severe Weather on mobile